Tampico, Washington
Current Conditions -  °F | °C
As of 3:53 PM on Sunday 25 Jan 2015 (Local Time) from KYKM Reporting Station
Haze Haze  
Wind Chill: 38°   Ceiling: 200
Heat Index: 42°   Visibility: 0.75mi
Dew Point: 39°   Wind: 6mph
Humidity: 89%   Direction: 90°E
Pressure: 30.17"   Gusts: NA
Location:  46.5979°N, 120.534°W
Report Text: KYKM 252353Z 09005KT 3/4SM R27/5500VP6000FT BR OVC002 06/04 A3017 RMK AO2 SFC VIS 2 1/2 SLP226 T00560039 10072 20017 56010 $
Loading
Personal Weather Stations






























Interactive Weather Map New forecast layout! Learn more

10-Day Weather Forecast

Advertisements
Track Severe Weather on mobile